createdAt,value
2022-11-21T02:17:36.825Z,32.65
2022-11-21T02:37:29.316Z,31.05
2022-11-21T02:47:26.661Z,30.42
2022-11-21T02:57:37.441Z,34.47
2022-11-21T03:33:45.494Z,33.90
2022-11-21T03:37:01.629Z,32.75
2022-11-21T04:07:18.725Z,37.85
2022-11-21T04:10:41.069Z,35.58
2022-11-21T04:56:19.137Z,40.90
2022-11-21T04:59:18.154Z,34.28
2022-11-21T05:05:56.936Z,39.83
2022-11-21T05:19:18.208Z,41.38
2022-11-21T05:54:54.961Z,46.05
2022-11-21T05:57:36.039Z,53.33
2022-11-21T06:10:00.505Z,49.47
2022-11-21T06:12:35.726Z,54.13
2022-11-21T06:15:30.113Z,51.53
2022-11-21T06:20:48.027Z,52.92
2022-11-21T06:32:35.566Z,52.22
2022-11-21T06:35:43.304Z,49.03
2022-11-21T06:41:36.869Z,54.65
2022-11-21T06:47:40.732Z,52.92
2022-11-21T06:50:35.020Z,53.30
2022-11-21T06:53:24.985Z,46.50
2022-11-21T06:59:40.404Z,50.40
2022-11-21T07:08:31.335Z,45.28
2022-11-21T07:11:25.660Z,51.22
2022-11-21T07:14:11.637Z,47.90
2022-11-21T07:16:41.877Z,50.58
2022-11-21T07:19:40.859Z,50.00
2022-11-21T07:22:40.681Z,50.30
2022-11-21T07:28:48.336Z,49.20
2022-11-21T07:31:34.733Z,49.97
2022-11-21T07:37:42.096Z,44.85
2022-11-21T07:40:32.934Z,37.28
2022-11-21T07:43:19.516Z,42.92
2022-11-21T07:46:03.053Z,45.42
2022-11-21T07:48:43.934Z,47.95
2022-11-21T07:51:53.456Z,48.55
2022-11-21T07:57:26.126Z,47.42
2022-11-21T08:00:18.266Z,41.85
2022-11-21T08:03:15.371Z,42.22
2022-11-21T08:05:45.940Z,43.78
2022-11-21T08:08:20.208Z,43.28
2022-11-21T08:10:57.639Z,42.90
2022-11-21T08:13:24.601Z,43.17
2022-11-21T08:19:04.139Z,46.58
2022-11-21T08:21:31.661Z,43.30
2022-11-21T08:24:21.468Z,40.90
2022-11-21T08:27:08.760Z,38.47
2022-11-21T08:30:00.216Z,42.60
2022-11-21T08:33:25.688Z,42.17
2022-11-21T08:35:57.840Z,39.03
2022-11-21T08:39:04.111Z,44.90
2022-11-21T08:45:15.367Z,37.83
2022-11-21T08:51:01.430Z,39.70
2022-11-21T08:53:52.504Z,40.70
2022-11-21T08:59:15.214Z,36.17
2022-11-21T09:02:08.226Z,39.28
2022-11-21T09:04:49.867Z,37.22
2022-11-21T09:07:23.582Z,42.55
2022-11-21T09:09:59.357Z,35.55
2022-11-21T09:12:34.376Z,35.17
2022-11-21T09:15:06.472Z,34.75
2022-11-21T09:17:49.635Z,33.40
2022-11-21T09:23:04.646Z,32.33
2022-11-21T09:25:38.515Z,32.22
2022-11-21T09:28:07.369Z,29.52
2022-11-21T09:30:41.211Z,31.90
2022-11-21T09:36:58.342Z,32.65
2022-11-21T09:39:47.419Z,30.52
2022-11-21T09:42:49.414Z,35.35
2022-11-21T09:45:50.568Z,26.20
2022-11-21T09:48:30.575Z,26.10
2022-11-21T09:51:03.336Z,25.27
2022-11-21T09:53:33.998Z,25.35
2022-11-21T09:56:06.629Z,23.00
2022-11-21T09:58:39.397Z,31.58
2022-11-21T10:01:06.550Z,28.52
2022-11-21T10:03:42.796Z,28.60
2022-11-21T10:06:17.497Z,27.50
2022-11-21T10:08:54.622Z,26.75
2022-11-21T10:11:31.843Z,23.92
2022-11-21T10:14:24.979Z,22.98
2022-11-21T10:17:09.774Z,22.17
2022-11-21T10:20:20.039Z,23.33
2022-11-21T10:23:12.557Z,20.88
2022-11-21T10:26:09.582Z,20.00
2022-11-21T10:28:52.926Z,22.30
2022-11-21T10:31:38.062Z,17.73
2022-11-21T10:34:12.285Z,19.67
2022-11-21T10:36:41.210Z,20.90
2022-11-21T10:39:15.045Z,19.70
2022-11-21T10:41:50.073Z,18.40
2022-11-21T10:44:25.199Z,16.98
2022-11-21T10:46:57.822Z,16.08
2022-11-21T10:49:29.008Z,17.45
2022-11-21T10:52:05.793Z,17.67
2022-11-21T10:54:32.724Z,17.75
2022-11-21T10:57:05.890Z,17.13
2022-11-21T10:59:33.676Z,16.08
2022-11-21T11:02:03.761Z,16.50
2022-11-21T11:04:41.502Z,15.57
2022-11-21T11:07:24.954Z,13.85
2022-11-21T11:09:51.983Z,16.42
2022-11-21T11:12:37.676Z,16.67
2022-11-21T11:15:08.237Z,14.75
2022-11-21T11:17:36.291Z,16.13
2022-11-21T11:20:05.905Z,13.98
2022-11-21T11:22:32.597Z,13.30
2022-11-21T11:25:00.897Z,13.85
2022-11-21T11:27:29.870Z,13.65
2022-11-21T11:29:56.696Z,13.30
2022-11-21T11:32:23.755Z,14.63
2022-11-21T11:34:58.399Z,11.88
2022-11-21T11:37:40.050Z,16.05
2022-11-21T11:40:18.836Z,11.38
2022-11-21T11:43:06.603Z,10.45
2022-11-21T11:46:11.233Z,10.02
2022-11-21T11:49:03.318Z,9.55
2022-11-21T11:51:33.594Z,10.07
2022-11-21T11:54:06.671Z,9.50
2022-11-21T11:57:08.334Z,9.43
2022-11-21T12:02:34.724Z,9.55
2022-11-21T12:05:15.117Z,9.07
2022-11-21T12:21:30.861Z,8.82
2022-11-21T12:25:21.606Z,9.65
2022-11-21T12:31:27.451Z,9.15
2022-11-21T12:34:44.249Z,8.38
2022-11-21T12:37:40.409Z,9.20
2022-11-21T12:43:57.572Z,8.75
2022-11-21T12:50:29.463Z,9.18
2022-11-21T14:51:45.122Z,26.60
2022-11-21T14:58:07.692Z,36.13
2022-11-21T15:04:57.319Z,32.55
2022-11-21T15:17:35.043Z,44.05
2022-11-21T15:24:11.191Z,39.97
2022-11-21T15:27:27.217Z,42.88
2022-11-21T15:30:42.279Z,43.13
2022-11-21T15:35:01.065Z,40.30
2022-11-21T15:36:29.363Z,42.65
2022-11-21T15:39:22.320Z,51.60
2022-11-21T15:45:35.984Z,46.78
2022-11-21T15:48:22.813Z,41.80
2022-11-21T15:51:06.169Z,47.50
2022-11-21T15:53:50.542Z,50.65
2022-11-21T15:56:37.544Z,59.35
2022-11-21T16:02:51.084Z,62.88
2022-11-21T16:05:39.927Z,58.30
2022-11-21T16:08:29.002Z,94.38
2022-11-21T16:11:08.752Z,89.85
2022-11-21T16:13:51.514Z,50.72
2022-11-21T16:16:43.489Z,56.30
2022-11-21T16:19:41.743Z,54.90
2022-11-21T16:25:21.452Z,63.70
2022-11-21T17:24:57.483Z,87.80
2022-11-21T17:48:54.842Z,94.00
2022-11-21T17:58:55.423Z,82.13
2022-11-21T18:02:59.401Z,95.70
2022-11-21T18:12:28.121Z,89.80
2022-11-21T18:14:57.945Z,84.55
2022-11-21T18:17:54.567Z,89.90
2022-11-21T18:24:30.499Z,89.22
2022-11-21T18:33:34.159Z,88.18
2022-11-21T18:56:55.881Z,121.05
2022-11-21T19:33:10.449Z,134.20
2022-11-21T21:17:17.202Z,101.00
2022-11-21T21:31:04.119Z,93.85
2022-11-21T21:37:29.191Z,87.03
2022-11-21T23:29:50.446Z,63.65
